createdAt,value
2024-04-25T00:01:26.292Z,99816.13
2024-04-25T00:03:56.526Z,99807.53
2024-04-25T00:06:26.941Z,99811.63
2024-04-25T00:08:57.331Z,99802.81
2024-04-25T00:11:30.609Z,99805.31
2024-04-25T00:14:00.987Z,99809.81
2024-04-25T00:16:31.662Z,99801.81
2024-04-25T00:19:01.914Z,99809.09
2024-04-25T00:21:32.244Z,99804.00
2024-04-25T00:24:02.519Z,99800.13
2024-04-25T00:26:35.602Z,99795.28
2024-04-25T00:29:06.155Z,99793.59
2024-04-25T00:31:37.013Z,99789.94
2024-04-25T00:34:07.507Z,99794.19
2024-04-25T00:36:37.913Z,99792.34
2024-04-25T00:39:08.267Z,99785.09
2024-04-25T00:41:41.326Z,99782.78
2024-04-25T00:44:11.772Z,99784.63
2024-04-25T00:46:42.689Z,99773.94
2024-04-25T00:49:14.571Z,99772.00
2024-04-25T00:51:45.050Z,99768.63
2024-04-25T00:54:15.572Z,99764.84
2024-04-25T00:56:50.338Z,99766.69
2024-04-25T00:59:24.131Z,99765.47
2024-04-25T01:01:55.364Z,99760.34
2024-04-25T01:04:28.016Z,99756.00
2024-04-25T01:07:01.765Z,99757.00
2024-04-25T01:09:32.910Z,99745.44
2024-04-25T01:12:07.030Z,99740.13
2024-04-25T01:14:38.076Z,99745.44
2024-04-25T01:17:08.357Z,99751.41
2024-04-25T01:19:38.727Z,99737.34
2024-04-25T01:22:09.543Z,99734.66
2024-04-25T01:24:42.671Z,99730.31
2024-04-25T01:27:13.789Z,99720.50
2024-04-25T01:29:44.659Z,99730.31
2024-04-25T01:32:16.027Z,99722.91
2024-04-25T01:34:46.510Z,99716.00
2024-04-25T01:37:16.902Z,99712.22
2024-04-25T01:39:49.950Z,99707.16
2024-04-25T01:42:20.321Z,99701.69
2024-04-25T01:44:50.806Z,99702.56
2024-04-25T01:47:21.288Z,99702.94
2024-04-25T01:49:51.648Z,99696.34
2024-04-25T01:52:21.955Z,99698.19
2024-04-25T01:54:54.947Z,99690.19
2024-04-25T01:57:25.365Z,99685.09
2024-04-25T01:59:55.668Z,99691.28
2024-04-25T02:02:26.034Z,99686.66
2024-04-25T02:04:56.607Z,99688.34
2024-04-25T02:07:26.841Z,99685.94
2024-04-25T02:09:59.872Z,99677.00
2024-04-25T02:12:30.801Z,99678.94
2024-04-25T02:15:01.108Z,99678.09
2024-04-25T02:17:31.596Z,99666.31
2024-04-25T02:20:02.009Z,99668.13
2024-04-25T02:22:48.267Z,99658.44
2024-04-25T02:25:23.616Z,99659.53
2024-04-25T02:27:54.013Z,99664.25
2024-04-25T02:30:24.480Z,99655.03
2024-04-25T02:32:55.022Z,99654.22
2024-04-25T02:35:26.869Z,99648.03
2024-04-25T02:37:57.274Z,99655.16
2024-04-25T02:40:30.165Z,99637.94
2024-04-25T02:43:00.542Z,99640.03
2024-04-25T02:45:28.191Z,99640.88
2024-04-25T02:47:58.722Z,99634.81
2024-04-25T02:50:26.408Z,99632.03
2024-04-25T02:52:56.767Z,99632.03
2024-04-25T02:55:27.228Z,99627.66
2024-04-25T02:57:57.475Z,99625.00
2024-04-25T03:00:25.435Z,99617.13
2024-04-25T03:02:57.549Z,99614.47
2024-04-25T03:05:25.473Z,99612.66
2024-04-25T03:07:55.916Z,99620.75
2024-04-25T03:10:23.911Z,99616.16
2024-04-25T03:12:57.031Z,99622.47
2024-04-25T03:15:24.948Z,99619.66
2024-04-25T03:17:55.614Z,99620.50
2024-04-25T03:20:23.574Z,99622.22
2024-04-25T03:22:53.970Z,99617.13
2024-04-25T03:25:21.976Z,99618.94
2024-04-25T03:27:52.901Z,99614.59
2024-04-25T03:30:23.512Z,99613.38
2024-04-25T03:32:54.073Z,99611.81
2024-04-25T03:35:22.082Z,99601.38
2024-04-25T03:37:52.556Z,99612.03
2024-04-25T03:40:23.108Z,99609.84
2024-04-25T03:42:53.746Z,99601.38
2024-04-25T03:45:29.851Z,99610.69
2024-04-25T03:48:00.633Z,99605.38
2024-04-25T03:50:31.157Z,99607.03
2024-04-25T03:53:04.625Z,99602.81
2024-04-25T03:55:35.309Z,99606.22
2024-04-25T03:58:05.941Z,99603.53
2024-04-25T04:00:39.105Z,99598.09
2024-04-25T04:03:12.654Z,99588.38
2024-04-25T04:05:43.391Z,99584.03
2024-04-25T04:08:13.990Z,99587.44
2024-04-25T04:10:47.178Z,99586.31
2024-04-25T04:13:17.920Z,99584.09
2024-04-25T04:15:51.086Z,99583.38
2024-04-25T04:18:21.837Z,99587.72
2024-04-25T04:20:53.256Z,99586.75
2024-04-25T04:23:23.722Z,99591.09
2024-04-25T04:25:56.143Z,99570.59
2024-04-25T04:28:26.672Z,99579.44
2024-04-25T04:30:59.960Z,99576.53
2024-04-25T04:33:30.885Z,99579.94
2024-04-25T04:36:01.453Z,99578.94
2024-04-25T04:38:32.426Z,99583.28
2024-04-25T04:41:02.969Z,99575.44
2024-04-25T04:43:34.785Z,99580.50
2024-04-25T04:46:08.353Z,99580.50
2024-04-25T04:48:39.276Z,99572.38
2024-04-25T04:51:09.989Z,99582.78
2024-04-25T04:53:40.465Z,99580.09
2024-04-25T04:56:11.503Z,99572.09
2024-04-25T04:58:42.056Z,99578.16
2024-04-25T05:01:15.439Z,99574.06
2024-04-25T05:03:46.201Z,99567.88
2024-04-25T05:06:19.573Z,99568.44
2024-04-25T05:08:50.157Z,99566.88
2024-04-25T05:11:20.731Z,99572.09
2024-04-25T05:13:54.080Z,99561.16
2024-04-25T05:16:27.251Z,99565.38
2024-04-25T05:18:57.695Z,99558.09
2024-04-25T05:21:32.195Z,99558.66
2024-04-25T05:24:03.686Z,99560.94
2024-04-25T05:26:36.834Z,99556.59
2024-04-25T05:29:08.606Z,99553.91
2024-04-25T05:31:42.202Z,99555.31
2024-04-25T05:34:12.711Z,99553.50
2024-04-25T05:36:43.446Z,99555.91
2024-04-25T05:39:14.319Z,99558.56
2024-04-25T05:41:44.750Z,99550.56
2024-04-25T05:44:15.230Z,99548.91
2024-04-25T05:46:48.334Z,99545.94
2024-04-25T05:49:18.740Z,99538.66
2024-04-25T05:51:49.109Z,99536.66
2024-04-25T05:54:19.699Z,99535.44
2024-04-25T05:56:50.032Z,99532.06
2024-04-25T05:59:20.532Z,99527.44
2024-04-25T06:01:53.454Z,99516.75
2024-04-25T06:04:23.837Z,99532.06
2024-04-25T06:06:54.091Z,99529.56
2024-04-25T06:09:24.553Z,99522.53
2024-04-25T06:11:55.363Z,99527.47
2024-04-25T06:14:26.808Z,99525.63
2024-04-25T06:16:59.884Z,99528.44
2024-04-25T06:19:30.384Z,99523.38
2024-04-25T06:22:00.702Z,99523.66
2024-04-25T06:24:31.192Z,99527.34
2024-04-25T06:27:01.496Z,99531.81
2024-04-25T06:29:32.121Z,99529.56
2024-04-25T06:32:05.566Z,99524.38
2024-04-25T06:34:36.186Z,99529.00
2024-04-25T06:37:09.492Z,99530.69
2024-04-25T06:39:39.893Z,99523.97
2024-04-25T06:42:10.366Z,99521.72
2024-04-25T06:44:56.033Z,99530.16
2024-04-25T06:47:29.342Z,99525.38
2024-04-25T06:49:59.852Z,99528.91
2024-04-25T06:52:30.375Z,99527.63
2024-04-25T06:55:00.770Z,99528.47
2024-04-25T06:57:31.146Z,99531.59
2024-04-25T07:00:01.691Z,99528.22
2024-04-25T07:02:34.876Z,99528.06
2024-04-25T07:05:05.321Z,99524.56
2024-04-25T07:07:35.799Z,99529.34
2024-04-25T07:10:06.174Z,99528.22
2024-04-25T07:12:36.594Z,99521.19
2024-04-25T07:15:08.058Z,99528.34
2024-04-25T07:17:41.884Z,99525.56
2024-04-25T07:20:13.726Z,99527.81
2024-04-25T07:22:44.028Z,99529.63
2024-04-25T07:25:15.733Z,99522.91
2024-04-25T07:27:46.072Z,99523.75
2024-04-25T07:30:16.539Z,99522.63
2024-04-25T07:32:49.601Z,99518.13
2024-04-25T07:35:20.492Z,99520.91
2024-04-25T07:37:50.950Z,99518.94
2024-04-25T07:40:21.226Z,99525.00
2024-04-25T07:42:51.536Z,99517.28
2024-04-25T07:45:21.984Z,99512.78
2024-04-25T07:47:55.384Z,99518.97
2024-04-25T07:50:25.985Z,99521.22
2024-04-25T07:52:56.475Z,99523.88
2024-04-25T07:55:26.968Z,99521.63
2024-04-25T07:57:57.283Z,99516.28
2024-04-25T08:00:27.729Z,99512.34
2024-04-25T08:03:00.887Z,99517.13
2024-04-25T08:05:31.437Z,99508.81
2024-04-25T08:08:01.760Z,99507.41
2024-04-25T08:10:32.133Z,99508.25
2024-04-25T08:13:02.572Z,99513.31
2024-04-25T08:15:33.875Z,99513.31
2024-04-25T08:18:07.415Z,99496.00
2024-04-25T08:20:37.968Z,99489.22
2024-04-25T08:23:08.592Z,99490.38
2024-04-25T08:25:39.024Z,99482.03
2024-04-25T08:28:11.863Z,99473.69
2024-04-25T08:30:42.585Z,99472.16
2024-04-25T08:33:15.873Z,99469.31
2024-04-25T08:35:46.458Z,99466.50
2024-04-25T08:38:16.984Z,99459.09
2024-04-25T08:40:51.013Z,99464.28
2024-04-25T08:43:21.358Z,99464.28
2024-04-25T08:45:53.604Z,99459.44
2024-04-25T08:48:28.369Z,99455.91
2024-04-25T08:50:59.727Z,99451.50
2024-04-25T08:53:30.258Z,99456.00
2024-04-25T08:56:01.403Z,99451.28
2024-04-25T08:58:31.729Z,99438.53
2024-04-25T09:01:03.010Z,99436.84
2024-04-25T09:03:36.328Z,99436.00
2024-04-25T09:06:07.147Z,99429.88
2024-04-25T09:08:37.634Z,99428.69
2024-04-25T09:11:08.574Z,99420.22
2024-04-25T09:13:38.989Z,99419.34
2024-04-25T09:16:10.026Z,99414.56
2024-04-25T09:18:42.900Z,99412.56
2024-04-25T09:21:13.305Z,99407.50
2024-04-25T09:23:41.785Z,99413.94
2024-04-25T09:26:13.942Z,99409.72
2024-04-25T09:28:45.257Z,99400.84
2024-04-25T09:31:17.379Z,99396.59
2024-04-25T09:33:50.612Z,99401.25
2024-04-25T09:36:21.487Z,99393.22
2024-04-25T09:38:52.267Z,99391.69
2024-04-25T09:41:23.809Z,99385.06
2024-04-25T09:43:55.477Z,99382.69
2024-04-25T09:46:32.137Z,99380.41
2024-04-25T09:49:06.895Z,99376.47
2024-04-25T09:51:42.207Z,99374.34
2024-04-25T09:54:17.731Z,99377.34
2024-04-25T09:56:49.767Z,99381.44
2024-04-25T09:59:29.684Z,99380.63
2024-04-25T10:02:01.671Z,99379.72
2024-04-25T10:04:37.051Z,99376.34
2024-04-25T10:07:08.548Z,99369.63
2024-04-25T10:09:39.808Z,99378.03
2024-04-25T10:12:11.216Z,99378.69
2024-04-25T10:14:41.723Z,99377.09
2024-04-25T10:17:12.498Z,99370.78
2024-04-25T10:19:45.725Z,99377.19
2024-04-25T10:22:23.881Z,99380.72
2024-04-25T10:24:56.330Z,99382.19
2024-04-25T10:27:26.730Z,99379.94
2024-04-25T10:29:57.387Z,99377.59
2024-04-25T10:32:28.041Z,99372.22
2024-04-25T10:35:02.427Z,99372.75
2024-04-25T10:37:32.929Z,99381.00
2024-04-25T10:40:03.428Z,99384.00
2024-04-25T10:42:33.784Z,99365.78
2024-04-25T10:45:07.130Z,99374.53
2024-04-25T10:47:37.788Z,99383.31
2024-04-25T10:50:11.803Z,99368.47
2024-04-25T10:52:42.410Z,99369.94
2024-04-25T10:55:12.929Z,99366.25
2024-04-25T10:57:43.347Z,99362.59
2024-04-25T11:00:15.063Z,99362.59
2024-04-25T11:02:45.661Z,99368.03
2024-04-25T11:05:18.964Z,99355.28
2024-04-25T11:07:49.389Z,99359.53
2024-04-25T11:10:19.824Z,99366.34
2024-04-25T11:12:51.108Z,99365.34
2024-04-25T11:15:22.131Z,99370.72
2024-04-25T11:18:00.821Z,99363.66
2024-04-25T11:20:40.927Z,99362.41
2024-04-25T11:23:13.223Z,99366.34
2024-04-25T11:25:46.739Z,99359.88
2024-04-25T11:28:19.607Z,99361.94
2024-04-25T11:30:49.625Z,99362.97
2024-04-25T11:33:24.109Z,99364.72
2024-04-25T11:35:57.744Z,99374.84
2024-04-25T11:38:29.939Z,99380.94
2024-04-25T11:41:00.951Z,99382.31
2024-04-25T11:43:31.417Z,99377.25
2024-04-25T11:46:01.831Z,99374.56
2024-04-25T11:48:32.828Z,99378.94
2024-04-25T11:51:05.760Z,99388.19
2024-04-25T11:53:36.940Z,99390.19
2024-04-25T11:56:07.914Z,99386.31
2024-04-25T11:58:38.136Z,99387.13
2024-04-25T12:01:09.415Z,99401.69
2024-04-25T12:03:39.948Z,99396.66
2024-04-25T12:06:12.994Z,99407.03
2024-04-25T12:08:46.724Z,99409.91
2024-04-25T12:11:17.327Z,99416.41
2024-04-25T12:13:48.394Z,99422.28
2024-04-25T12:16:18.514Z,99426.13
2024-04-25T12:18:49.067Z,99430.94
2024-04-25T12:21:22.126Z,99437.84
2024-04-25T12:23:52.679Z,99438.00
2024-04-25T12:26:23.279Z,99451.25
2024-04-25T12:28:53.631Z,99442.50
2024-04-25T12:31:24.042Z,99441.44
2024-04-25T12:33:56.699Z,99444.97
2024-04-25T12:36:29.881Z,99451.84
2024-04-25T12:39:00.396Z,99457.72
2024-04-25T12:41:30.988Z,99471.88
2024-04-25T12:44:01.569Z,99465.47
2024-04-25T12:46:31.955Z,99477.09
2024-04-25T12:49:02.348Z,99485.53
2024-04-25T12:51:35.382Z,99484.00
2024-04-25T12:54:05.711Z,99491.25
2024-04-25T12:56:36.172Z,99495.97
2024-04-25T12:59:06.516Z,99494.31
2024-04-25T13:01:36.851Z,99498.00
2024-04-25T13:04:07.101Z,99505.75
2024-04-25T13:06:40.191Z,99506.06
2024-04-25T13:09:10.652Z,99508.22
2024-04-25T13:11:41.250Z,99504.97
2024-04-25T13:14:11.880Z,99524.31
2024-04-25T13:16:42.324Z,99529.81
2024-04-25T13:19:12.820Z,99531.84
2024-04-25T13:21:46.556Z,99535.59
2024-04-25T13:24:16.960Z,99552.25
2024-04-25T13:26:47.518Z,99546.56
2024-04-25T13:29:17.968Z,99553.16
2024-04-25T13:31:48.518Z,99558.22
2024-04-25T13:34:23.209Z,99558.13
2024-04-25T13:36:57.464Z,99563.13
2024-04-25T13:39:27.770Z,99566.63
2024-04-25T13:41:58.233Z,99580.28
2024-04-25T13:44:28.807Z,99589.78
2024-04-25T13:46:59.833Z,99597.25
2024-04-25T13:49:30.305Z,99603.78
2024-04-25T13:52:03.570Z,99612.19
2024-04-25T13:54:35.135Z,99618.72
2024-04-25T13:57:05.858Z,99622.22
2024-04-25T13:59:36.373Z,99631.97
2024-04-25T14:02:07.617Z,99632.94
2024-04-25T14:04:38.110Z,99639.63
2024-04-25T14:07:11.236Z,99648.81
2024-04-25T14:09:46.249Z,99644.47
2024-04-25T14:12:16.743Z,99645.78
2024-04-25T14:14:47.252Z,99650.53
2024-04-25T14:17:17.768Z,99656.31
2024-04-25T14:19:48.103Z,99657.16
2024-04-25T14:22:21.227Z,99666.50
2024-04-25T14:25:01.535Z,99663.44
2024-04-25T14:27:47.796Z,99660.31
2024-04-25T14:30:18.104Z,99669.75
2024-04-25T14:32:48.551Z,99670.78
2024-04-25T14:35:18.941Z,99674.28
2024-04-25T14:37:52.124Z,99681.63
2024-04-25T14:40:26.664Z,99677.53
2024-04-25T14:42:57.323Z,99689.94
2024-04-25T14:45:27.880Z,99691.06
2024-04-25T14:47:58.369Z,99700.66
2024-04-25T14:50:28.841Z,99700.78
2024-04-25T14:53:02.026Z,99708.16
2024-04-25T14:55:32.345Z,99713.09
2024-04-25T14:58:02.690Z,99722.53
2024-04-25T15:00:33.088Z,99720.03
2024-04-25T15:03:03.546Z,99719.84
2024-04-25T15:05:33.888Z,99726.06
2024-04-25T15:08:08.478Z,99724.38
2024-04-25T15:10:40.583Z,99730.88
2024-04-25T15:13:11.495Z,99742.41
2024-04-25T15:15:41.909Z,99752.28
2024-04-25T15:18:12.785Z,99758.47
2024-04-25T15:20:42.988Z,99760.19
2024-04-25T15:23:16.052Z,99766.22
2024-04-25T15:25:46.512Z,99769.06
2024-04-25T15:28:18.222Z,99778.06
2024-04-25T15:30:48.648Z,99780.91
2024-04-25T15:33:19.145Z,99783.59
2024-04-25T15:35:50.093Z,99789.91
2024-04-25T15:38:23.283Z,99791.47
2024-04-25T15:40:53.783Z,99788.97
2024-04-25T15:43:24.319Z,99790.94
2024-04-25T15:45:54.794Z,99799.09
2024-04-25T15:48:25.359Z,99798.97
2024-04-25T15:50:55.972Z,99798.97
2024-04-25T15:53:29.253Z,99806.00
2024-04-25T15:55:59.592Z,99808.84
2024-04-25T15:58:29.944Z,99809.97
2024-04-25T16:01:00.305Z,99802.91
2024-04-25T16:03:31.525Z,99809.53
2024-04-25T16:06:02.043Z,99815.59
2024-04-25T16:08:35.841Z,99821.09
2024-04-25T16:11:06.443Z,99825.03
2024-04-25T16:13:36.931Z,99819.25
2024-04-25T16:16:09.847Z,99827.56
2024-04-25T16:18:40.584Z,99819.13
2024-04-25T16:21:10.988Z,99820.94
2024-04-25T16:23:44.526Z,99819.81
2024-04-25T16:26:15.263Z,99822.50
2024-04-25T16:28:43.080Z,99833.22
2024-04-25T16:31:14.285Z,99824.47
2024-04-25T16:33:44.814Z,99834.34
2024-04-25T16:36:21.701Z,99838.13
2024-04-25T16:38:54.879Z,99844.88
2024-04-25T16:41:26.576Z,99849.78
2024-04-25T16:43:57.063Z,99839.66
2024-04-25T16:46:27.604Z,99848.81
2024-04-25T16:48:58.125Z,99845.69
2024-04-25T16:51:30.030Z,99848.63
2024-04-25T16:54:03.162Z,99854.25
2024-04-25T16:56:35.439Z,99857.50
2024-04-25T16:59:05.947Z,99859.44
2024-04-25T17:01:36.253Z,99867.47
2024-04-25T17:04:06.865Z,99878.47
2024-04-25T17:06:37.510Z,99879.69
2024-04-25T17:09:10.552Z,99879.97
2024-04-25T17:11:40.989Z,99895.31
2024-04-25T17:14:11.373Z,99893.16
2024-04-25T17:16:42.427Z,99910.47
2024-04-25T17:19:12.774Z,99912.97
2024-04-25T17:21:43.448Z,99918.59
2024-04-25T17:24:16.980Z,99927.03
2024-04-25T17:26:47.574Z,99929.69
2024-04-25T17:29:18.280Z,99943.06
2024-04-25T17:31:50.550Z,99954.63
2024-04-25T17:34:21.181Z,99945.00
2024-04-25T17:36:51.674Z,99948.69
2024-04-25T17:39:24.653Z,99957.69
2024-04-25T17:41:55.257Z,99959.66
2024-04-25T17:44:25.969Z,99967.66
2024-04-25T17:46:59.060Z,99968.91
2024-04-25T17:49:29.474Z,99970.84
2024-04-25T17:51:59.821Z,99978.19
2024-04-25T17:54:32.955Z,99986.19
2024-04-25T17:57:03.528Z,99987.28
2024-04-25T17:59:33.869Z,99997.84
2024-04-25T18:02:05.939Z,100008.53
2024-04-25T18:04:36.397Z,100006.84
2024-04-25T18:07:15.540Z,100020.06
2024-04-25T18:09:48.744Z,100024.59
2024-04-25T18:12:19.185Z,100029.94
2024-04-25T18:14:55.739Z,100033.59
2024-04-25T18:17:34.398Z,100029.72
2024-04-25T18:20:04.905Z,100037.38
2024-04-25T18:22:39.489Z,100053.25
2024-04-25T18:25:13.510Z,100057.66
2024-04-25T18:27:44.559Z,100052.41
2024-04-25T18:30:15.270Z,100061.44
2024-04-25T18:32:49.704Z,100069.31
2024-04-25T18:35:21.345Z,100067.72
2024-04-25T18:37:51.841Z,100079.53
2024-04-25T18:40:25.269Z,100071.66
2024-04-25T18:42:53.507Z,100077.13
2024-04-25T18:45:24.013Z,100076.84
2024-04-25T18:47:54.542Z,100077.69
2024-04-25T18:50:26.166Z,100078.56
2024-04-25T18:52:56.934Z,100084.75
2024-04-25T18:55:30.092Z,100085.34
2024-04-25T18:58:00.963Z,100084.38
2024-04-25T19:00:34.465Z,100091.41
2024-04-25T19:03:08.856Z,100093.75
2024-04-25T19:05:39.725Z,100103.94
2024-04-25T19:08:11.742Z,100108.44
2024-04-25T19:10:44.861Z,100120.56
2024-04-25T19:13:17.479Z,100121.81
2024-04-25T19:15:47.851Z,100133.47
2024-04-25T19:18:19.152Z,100131.88
2024-04-25T19:20:52.671Z,100149.50
2024-04-25T19:23:23.133Z,100159.22
2024-04-25T19:25:56.741Z,100150.34
2024-04-25T19:28:27.139Z,100161.03
2024-04-25T19:30:57.501Z,100165.53
2024-04-25T19:33:28.728Z,100158.63
2024-04-25T19:35:59.497Z,100170.16
2024-04-25T19:38:31.827Z,100160.19
2024-04-25T19:41:11.402Z,100176.22
2024-04-25T19:43:43.580Z,100176.22
2024-04-25T19:46:16.959Z,100183.53
2024-04-25T19:48:50.941Z,100195.19
2024-04-25T19:51:21.423Z,100197.63
2024-04-25T19:53:51.956Z,100203.81
2024-04-25T19:56:25.195Z,100204.69
2024-04-25T19:58:55.752Z,100206.47
2024-04-25T20:01:29.659Z,100216.31
2024-04-25T20:04:00.126Z,100222.50
2024-04-25T20:06:33.391Z,100220.00
2024-04-25T20:09:04.015Z,100240.38
2024-04-25T20:11:37.203Z,100238.44
2024-04-25T20:14:07.760Z,100237.50
2024-04-25T20:16:38.283Z,100239.28
2024-04-25T20:19:24.661Z,100250.84
2024-04-25T20:21:55.115Z,100257.88
2024-04-25T20:24:26.522Z,100263.97
2024-04-25T20:27:04.401Z,100271.25
2024-04-25T20:29:38.962Z,100277.34
2024-04-25T20:32:12.931Z,100290.72
2024-04-25T20:34:43.434Z,100299.56
2024-04-25T20:37:13.782Z,100297.00
2024-04-25T20:39:44.786Z,100304.91
2024-04-25T20:42:18.706Z,100297.88
2024-04-25T20:44:49.205Z,100295.91
2024-04-25T20:47:20.097Z,100312.81
2024-04-25T20:49:51.911Z,100310.16
2024-04-25T20:52:22.458Z,100309.28
2024-04-25T20:54:52.913Z,100312.81
2024-04-25T20:57:26.044Z,100318.16
2024-04-25T20:59:58.149Z,100322.66
2024-04-25T21:02:31.479Z,100318.16
2024-04-25T21:05:03.737Z,100316.72
2024-04-25T21:07:35.087Z,100329.97
2024-04-25T21:10:10.769Z,100329.34
2024-04-25T21:12:43.728Z,100333.72
2024-04-25T21:15:14.267Z,100327.50
2024-04-25T21:17:45.147Z,100331.28
2024-04-25T21:20:15.818Z,100337.34
2024-04-25T21:22:46.151Z,100326.78
2024-04-25T21:25:18.556Z,100325.09
2024-04-25T21:27:55.846Z,100322.41
2024-04-25T21:30:26.258Z,100323.25
2024-04-25T21:32:56.856Z,100321.56
2024-04-25T21:35:27.453Z,100320.72
2024-04-25T21:37:57.819Z,100318.91
2024-04-25T21:40:28.277Z,100311.00
2024-04-25T21:43:01.370Z,100313.81
2024-04-25T21:45:31.789Z,100307.47
2024-04-25T21:48:02.631Z,100312.94
2024-04-25T21:50:33.143Z,100311.13
2024-04-25T21:53:04.282Z,100307.72
2024-04-25T21:55:37.210Z,100299.81
2024-04-25T21:58:10.190Z,100304.31
2024-04-25T22:00:40.903Z,100303.56
2024-04-25T22:03:11.570Z,100299.22
2024-04-25T22:05:42.050Z,100303.84
2024-04-25T22:08:12.586Z,100306.50
2024-04-25T22:10:40.327Z,100307.47
2024-04-25T22:13:13.405Z,100304.09
2024-04-25T22:15:43.891Z,100311.97
2024-04-25T22:18:14.345Z,100313.06
2024-04-25T22:20:44.790Z,100309.53
2024-04-25T22:23:15.210Z,100309.63
2024-04-25T22:25:45.714Z,100306.88
2024-04-25T22:28:18.714Z,100302.63
2024-04-25T22:30:49.079Z,100303.59
2024-04-25T22:33:19.833Z,100306.28
2024-04-25T22:35:50.340Z,100299.19
2024-04-25T22:38:20.825Z,100308.22
2024-04-25T22:40:51.179Z,100308.22
2024-04-25T22:43:24.329Z,100313.66
2024-04-25T22:45:55.074Z,100310.97
2024-04-25T22:48:26.708Z,100312.06
2024-04-25T22:50:57.292Z,100313.81
2024-04-25T22:53:27.559Z,100317.16
2024-04-25T22:55:58.144Z,100309.41
2024-04-25T22:58:31.094Z,100315.72
2024-04-25T23:01:01.539Z,100315.72
2024-04-25T23:03:32.224Z,100316.56
2024-04-25T23:06:02.781Z,100326.41
2024-04-25T23:08:33.145Z,100325.44
2024-04-25T23:11:03.627Z,100328.09
2024-04-25T23:13:36.631Z,100325.44
2024-04-25T23:16:07.318Z,100321.91
2024-04-25T23:18:37.692Z,100328.59
2024-04-25T23:21:08.714Z,100333.22
2024-04-25T23:23:39.846Z,100324.97
2024-04-25T23:26:10.220Z,100332.00
2024-04-25T23:28:43.164Z,100322.31
2024-04-25T23:31:19.869Z,100313.31
2024-04-25T23:33:50.531Z,100311.38
2024-04-25T23:36:21.010Z,100323.25
2024-04-25T23:38:52.883Z,100327.03
2024-04-25T23:41:23.305Z,100325.19
2024-04-25T23:43:56.331Z,100331.53
2024-04-25T23:46:26.746Z,100329.59
2024-04-25T23:48:57.108Z,100337.94
2024-04-25T23:51:27.610Z,100340.88
2024-04-25T23:53:57.995Z,100335.03
2024-04-25T23:56:28.537Z,100345.38
2024-04-25T23:59:01.615Z,100338.81
